sensor_id;sensor_type;location;lat;lon;timestamp;temperature;humidity
11242;DHT22;5678;52.370;9.006;2022-07-06T00:01:06;14.60;99.90
11242;DHT22;5678;52.370;9.006;2022-07-06T00:03:33;14.60;99.90
11242;DHT22;5678;52.370;9.006;2022-07-06T00:06:02;14.60;99.90
11242;DHT22;5678;52.370;9.006;2022-07-06T00:08:30;14.60;99.90
11242;DHT22;5678;52.370;9.006;2022-07-06T00:10:58;14.60;99.90
11242;DHT22;5678;52.370;9.006;2022-07-06T00:13:25;14.60;99.90
11242;DHT22;5678;52.370;9.006;2022-07-06T00:15:53;14.60;99.90
11242;DHT22;5678;52.370;9.006;2022-07-06T00:18:23;14.60;99.90
11242;DHT22;5678;52.370;9.006;2022-07-06T00:20:52;14.60;99.90
11242;DHT22;5678;52.370;9.006;2022-07-06T00:23:20;14.60;99.90
11242;DHT22;5678;52.370;9.006;2022-07-06T00:25:48;14.60;99.90
11242;DHT22;5678;52.370;9.006;2022-07-06T00:28:16;14.50;99.90
11242;DHT22;5678;52.370;9.006;2022-07-06T00:30:44;14.50;99.90
11242;DHT22;5678;52.370;9.006;2022-07-06T00:33:12;14.40;99.90
11242;DHT22;5678;52.370;9.006;2022-07-06T00:35:41;14.40;99.90
11242;DHT22;5678;52.370;9.006;2022-07-06T00:38:09;14.40;99.90
11242;DHT22;5678;52.370;9.006;2022-07-06T00:40:37;14.40;99.90
11242;DHT22;5678;52.370;9.006;2022-07-06T00:43:06;14.30;99.90
11242;DHT22;5678;52.370;9.006;2022-07-06T00:45:33;14.30;99.90
11242;DHT22;5678;52.370;9.006;2022-07-06T00:48:02;14.30;99.90
11242;DHT22;5678;52.370;9.006;2022-07-06T00:50:30;14.30;99.90
11242;DHT22;5678;52.370;9.006;2022-07-06T00:53:02;14.30;99.90
11242;DHT22;5678;52.370;9.006;2022-07-06T00:55:32;14.30;99.90
11242;DHT22;5678;52.370;9.006;2022-07-06T00:58:01;14.30;99.90
11242;DHT22;5678;52.370;9.006;2022-07-06T01:00:31;14.30;99.90
11242;DHT22;5678;52.370;9.006;2022-07-06T01:02:59;14.30;99.90
11242;DHT22;5678;52.370;9.006;2022-07-06T01:05:28;14.40;99.90
11242;DHT22;5678;52.370;9.006;2022-07-06T01:07:56;14.30;99.90
11242;DHT22;5678;52.370;9.006;2022-07-06T01:10:25;14.30;99.90
11242;DHT22;5678;52.370;9.006;2022-07-06T01:12:53;14.20;99.90
11242;DHT22;5678;52.370;9.006;2022-07-06T01:15:23;14.20;99.90
11242;DHT22;5678;52.370;9.006;2022-07-06T01:17:52;14.40;99.90
11242;DHT22;5678;52.370;9.006;2022-07-06T01:20:23;14.20;99.90
11242;DHT22;5678;52.370;9.006;2022-07-06T01:22:53;14.20;99.90
11242;DHT22;5678;52.370;9.006;2022-07-06T01:25:22;14.30;99.90
11242;DHT22;5678;52.370;9.006;2022-07-06T01:27:50;14.20;99.90
11242;DHT22;5678;52.370;9.006;2022-07-06T01:30:19;14.20;99.90
11242;DHT22;5678;52.370;9.006;2022-07-06T01:32:47;14.20;99.90
11242;DHT22;5678;52.370;9.006;2022-07-06T01:35:15;14.20;99.90
11242;DHT22;5678;52.370;9.006;2022-07-06T01:37:44;14.20;99.90
11242;DHT22;5678;52.370;9.006;2022-07-06T01:40:12;14.20;99.90
11242;DHT22;5678;52.370;9.006;2022-07-06T01:42:41;14.20;99.90
11242;DHT22;5678;52.370;9.006;2022-07-06T01:45:09;14.20;99.90
11242;DHT22;5678;52.370;9.006;2022-07-06T01:47:38;14.20;99.90
11242;DHT22;5678;52.370;9.006;2022-07-06T01:50:07;14.10;99.90
11242;DHT22;5678;52.370;9.006;2022-07-06T01:52:36;14.10;99.90
11242;DHT22;5678;52.370;9.006;2022-07-06T01:55:07;14.10;99.90
11242;DHT22;5678;52.370;9.006;2022-07-06T01:57:35;14.20;99.90
11242;DHT22;5678;52.370;9.006;2022-07-06T02:00:05;14.20;99.90
11242;DHT22;5678;52.370;9.006;2022-07-06T02:02:33;14.20;99.90
11242;DHT22;5678;52.370;9.006;2022-07-06T02:05:01;14.20;99.90
11242;DHT22;5678;52.370;9.006;2022-07-06T02:07:29;14.20;99.90
11242;DHT22;5678;52.370;9.006;2022-07-06T02:09:57;14.20;99.90
11242;DHT22;5678;52.370;9.006;2022-07-06T02:12:26;14.20;99.90
11242;DHT22;5678;52.370;9.006;2022-07-06T02:14:54;14.10;99.90
11242;DHT22;5678;52.370;9.006;2022-07-06T02:17:22;14.20;99.90
11242;DHT22;5678;52.370;9.006;2022-07-06T02:19:50;14.20;99.90
11242;DHT22;5678;52.370;9.006;2022-07-06T02:22:17;14.10;99.90
11242;DHT22;5678;52.370;9.006;2022-07-06T02:24:45;14.20;99.90
11242;DHT22;5678;52.370;9.006;2022-07-06T02:27:13;14.20;99.90
11242;DHT22;5678;52.370;9.006;2022-07-06T02:29:43;14.10;99.90
11242;DHT22;5678;52.370;9.006;2022-07-06T02:32:11;14.10;99.90
11242;DHT22;5678;52.370;9.006;2022-07-06T02:34:38;14.10;99.90
11242;DHT22;5678;52.370;9.006;2022-07-06T02:37:06;14.10;99.90
11242;DHT22;5678;52.370;9.006;2022-07-06T02:39:34;14.10;99.90
11242;DHT22;5678;52.370;9.006;2022-07-06T02:42:03;14.10;99.90
11242;DHT22;5678;52.370;9.006;2022-07-06T02:44:31;14.10;99.90
11242;DHT22;5678;52.370;9.006;2022-07-06T02:47:00;14.00;99.90
11242;DHT22;5678;52.370;9.006;2022-07-06T02:49:28;14.00;99.90
11242;DHT22;5678;52.370;9.006;2022-07-06T02:51:56;13.90;99.90
11242;DHT22;5678;52.370;9.006;2022-07-06T02:54:24;13.90;99.90
11242;DHT22;5678;52.370;9.006;2022-07-06T02:56:52;13.90;99.90
11242;DHT22;5678;52.370;9.006;2022-07-06T02:59:20;13.90;99.90
11242;DHT22;5678;52.370;9.006;2022-07-06T03:01:48;13.90;99.90
11242;DHT22;5678;52.370;9.006;2022-07-06T03:04:17;13.90;99.90
11242;DHT22;5678;52.370;9.006;2022-07-06T03:06:45;13.90;99.90
11242;DHT22;5678;52.370;9.006;2022-07-06T03:09:13;13.90;99.90
11242;DHT22;5678;52.370;9.006;2022-07-06T03:11:41;13.80;99.90
11242;DHT22;5678;52.370;9.006;2022-07-06T03:14:09;13.90;99.90
11242;DHT22;5678;52.370;9.006;2022-07-06T03:16:37;13.90;99.90
11242;DHT22;5678;52.370;9.006;2022-07-06T03:19:05;13.80;99.90
11242;DHT22;5678;52.370;9.006;2022-07-06T03:21:34;13.80;99.90
11242;DHT22;5678;52.370;9.006;2022-07-06T03:24:02;13.80;99.90
11242;DHT22;5678;52.370;9.006;2022-07-06T03:26:30;13.80;99.90
11242;DHT22;5678;52.370;9.006;2022-07-06T03:28:58;13.80;99.90
11242;DHT22;5678;52.370;9.006;2022-07-06T03:31:26;13.80;99.90
11242;DHT22;5678;52.370;9.006;2022-07-06T03:33:54;13.70;99.90
11242;DHT22;5678;52.370;9.006;2022-07-06T03:36:22;13.70;99.90
11242;DHT22;5678;52.370;9.006;2022-07-06T03:38:52;13.70;99.90
11242;DHT22;5678;52.370;9.006;2022-07-06T03:41:20;13.70;99.90
11242;DHT22;5678;52.370;9.006;2022-07-06T03:43:47;13.80;99.90
11242;DHT22;5678;52.370;9.006;2022-07-06T03:46:15;13.80;99.90
11242;DHT22;5678;52.370;9.006;2022-07-06T03:48:43;13.70;99.90
11242;DHT22;5678;52.370;9.006;2022-07-06T03:51:11;13.70;99.90
11242;DHT22;5678;52.370;9.006;2022-07-06T03:53:39;13.70;99.90
11242;DHT22;5678;52.370;9.006;2022-07-06T03:56:08;13.70;99.90
11242;DHT22;5678;52.370;9.006;2022-07-06T03:58:54;13.70;99.90
11242;DHT22;5678;52.370;9.006;2022-07-06T04:01:22;13.70;99.90
11242;DHT22;5678;52.370;9.006;2022-07-06T04:03:50;13.80;99.90
11242;DHT22;5678;52.370;9.006;2022-07-06T04:06:18;13.80;99.90
11242;DHT22;5678;52.370;9.006;2022-07-06T04:08:46;13.80;99.90
11242;DHT22;5678;52.370;9.006;2022-07-06T04:11:16;13.80;99.90
11242;DHT22;5678;52.370;9.006;2022-07-06T04:13:44;13.80;99.90
11242;DHT22;5678;52.370;9.006;2022-07-06T04:16:12;13.80;99.90
11242;DHT22;5678;52.370;9.006;2022-07-06T04:18:40;13.80;99.90
11242;DHT22;5678;52.370;9.006;2022-07-06T04:21:08;13.90;99.90
11242;DHT22;5678;52.370;9.006;2022-07-06T04:23:36;14.00;99.90
11242;DHT22;5678;52.370;9.006;2022-07-06T04:26:04;14.00;99.90
11242;DHT22;5678;52.370;9.006;2022-07-06T04:28:33;14.00;99.90
11242;DHT22;5678;52.370;9.006;2022-07-06T04:31:01;14.10;99.90
11242;DHT22;5678;52.370;9.006;2022-07-06T04:33:29;14.20;99.90
11242;DHT22;5678;52.370;9.006;2022-07-06T04:35:57;14.20;99.90
11242;DHT22;5678;52.370;9.006;2022-07-06T04:38:26;14.20;99.90
11242;DHT22;5678;52.370;9.006;2022-07-06T04:40:54;14.20;99.90
11242;DHT22;5678;52.370;9.006;2022-07-06T04:43:22;14.20;99.90
11242;DHT22;5678;52.370;9.006;2022-07-06T04:45:51;14.30;99.90
11242;DHT22;5678;52.370;9.006;2022-07-06T04:48:19;14.20;99.90
11242;DHT22;5678;52.370;9.006;2022-07-06T04:50:48;14.10;99.90
11242;DHT22;5678;52.370;9.006;2022-07-06T04:53:16;14.20;99.90
11242;DHT22;5678;52.370;9.006;2022-07-06T04:55:44;14.20;99.90
11242;DHT22;5678;52.370;9.006;2022-07-06T04:58:11;14.30;99.90
11242;DHT22;5678;52.370;9.006;2022-07-06T05:00:39;14.30;99.90
11242;DHT22;5678;52.370;9.006;2022-07-06T05:03:09;14.30;99.90
11242;DHT22;5678;52.370;9.006;2022-07-06T05:05:37;14.40;99.90
11242;DHT22;5678;52.370;9.006;2022-07-06T05:08:05;14.50;99.90
11242;DHT22;5678;52.370;9.006;2022-07-06T05:10:33;14.50;99.90
11242;DHT22;5678;52.370;9.006;2022-07-06T05:13:00;14.60;99.90
11242;DHT22;5678;52.370;9.006;2022-07-06T05:15:28;14.70;99.90
11242;DHT22;5678;52.370;9.006;2022-07-06T05:17:57;14.80;99.90
11242;DHT22;5678;52.370;9.006;2022-07-06T05:20:26;14.90;99.90
11242;DHT22;5678;52.370;9.006;2022-07-06T05:22:54;15.20;99.90
11242;DHT22;5678;52.370;9.006;2022-07-06T05:25:22;15.00;99.90
11242;DHT22;5678;52.370;9.006;2022-07-06T05:27:50;15.10;99.90
11242;DHT22;5678;52.370;9.006;2022-07-06T05:30:18;15.20;99.90
11242;DHT22;5678;52.370;9.006;2022-07-06T05:32:46;15.30;99.90
11242;DHT22;5678;52.370;9.006;2022-07-06T05:35:14;15.30;99.90
11242;DHT22;5678;52.370;9.006;2022-07-06T05:38:04;15.60;99.90
11242;DHT22;5678;52.370;9.006;2022-07-06T05:40:32;15.40;99.90
11242;DHT22;5678;52.370;9.006;2022-07-06T05:43:00;15.40;99.90
11242;DHT22;5678;52.370;9.006;2022-07-06T05:45:28;15.40;99.90
11242;DHT22;5678;52.370;9.006;2022-07-06T05:47:56;15.50;99.90
11242;DHT22;5678;52.370;9.006;2022-07-06T05:50:41;15.50;99.90
11242;DHT22;5678;52.370;9.006;2022-07-06T05:53:10;15.60;99.90
11242;DHT22;5678;52.370;9.006;2022-07-06T05:55:46;15.60;99.90
11242;DHT22;5678;52.370;9.006;2022-07-06T05:58:14;15.70;99.90
11242;DHT22;5678;52.370;9.006;2022-07-06T06:00:43;15.80;99.90
11242;DHT22;5678;52.370;9.006;2022-07-06T06:03:11;16.00;99.90
11242;DHT22;5678;52.370;9.006;2022-07-06T06:05:39;16.00;99.90
11242;DHT22;5678;52.370;9.006;2022-07-06T06:08:07;16.20;99.90
11242;DHT22;5678;52.370;9.006;2022-07-06T06:10:36;16.10;99.90
11242;DHT22;5678;52.370;9.006;2022-07-06T06:13:04;16.20;99.90
11242;DHT22;5678;52.370;9.006;2022-07-06T06:15:32;16.30;99.90
11242;DHT22;5678;52.370;9.006;2022-07-06T06:18:00;16.40;99.90
11242;DHT22;5678;52.370;9.006;2022-07-06T06:20:30;16.50;99.90
11242;DHT22;5678;52.370;9.006;2022-07-06T06:22:59;16.70;99.90
11242;DHT22;5678;52.370;9.006;2022-07-06T06:25:28;16.70;99.90
11242;DHT22;5678;52.370;9.006;2022-07-06T06:27:58;16.70;99.90
11242;DHT22;5678;52.370;9.006;2022-07-06T06:30:26;16.80;99.90
11242;DHT22;5678;52.370;9.006;2022-07-06T06:33:08;17.00;99.90
11242;DHT22;5678;52.370;9.006;2022-07-06T06:35:37;17.20;99.90
11242;DHT22;5678;52.370;9.006;2022-07-06T06:38:05;17.40;99.90
11242;DHT22;5678;52.370;9.006;2022-07-06T06:40:34;17.40;99.90
11242;DHT22;5678;52.370;9.006;2022-07-06T06:43:03;17.50;99.90
11242;DHT22;5678;52.370;9.006;2022-07-06T06:45:31;17.60;99.90
11242;DHT22;5678;52.370;9.006;2022-07-06T06:47:59;17.60;99.90
11242;DHT22;5678;52.370;9.006;2022-07-06T06:50:27;17.80;99.90
11242;DHT22;5678;52.370;9.006;2022-07-06T06:52:55;17.60;99.90
11242;DHT22;5678;52.370;9.006;2022-07-06T06:55:23;17.60;99.90
11242;DHT22;5678;52.370;9.006;2022-07-06T06:57:51;17.70;99.90
11242;DHT22;5678;52.370;9.006;2022-07-06T07:00:20;17.70;99.90
11242;DHT22;5678;52.370;9.006;2022-07-06T07:02:48;17.70;99.90
11242;DHT22;5678;52.370;9.006;2022-07-06T07:05:16;17.90;99.90
11242;DHT22;5678;52.370;9.006;2022-07-06T07:07:44;17.90;99.90
11242;DHT22;5678;52.370;9.006;2022-07-06T07:10:12;18.00;99.90
11242;DHT22;5678;52.370;9.006;2022-07-06T07:12:44;17.90;99.90
11242;DHT22;5678;52.370;9.006;2022-07-06T07:15:12;18.00;99.90
11242;DHT22;5678;52.370;9.006;2022-07-06T07:17:42;18.20;99.90
11242;DHT22;5678;52.370;9.006;2022-07-06T07:20:11;18.30;99.90
11242;DHT22;5678;52.370;9.006;2022-07-06T07:22:39;18.50;99.90
11242;DHT22;5678;52.370;9.006;2022-07-06T07:25:07;18.70;99.90
11242;DHT22;5678;52.370;9.006;2022-07-06T07:27:35;18.80;99.90
11242;DHT22;5678;52.370;9.006;2022-07-06T07:30:04;18.90;99.90
11242;DHT22;5678;52.370;9.006;2022-07-06T07:32:32;18.90;99.90
11242;DHT22;5678;52.370;9.006;2022-07-06T07:35:01;18.90;99.90
11242;DHT22;5678;52.370;9.006;2022-07-06T07:37:29;19.00;99.90
11242;DHT22;5678;52.370;9.006;2022-07-06T07:39:57;19.20;99.90
11242;DHT22;5678;52.370;9.006;2022-07-06T07:42:25;19.30;99.90
11242;DHT22;5678;52.370;9.006;2022-07-06T07:44:53;19.40;99.90
11242;DHT22;5678;52.370;9.006;2022-07-06T07:47:21;19.60;99.90
11242;DHT22;5678;52.370;9.006;2022-07-06T07:49:49;19.60;99.90
11242;DHT22;5678;52.370;9.006;2022-07-06T07:52:18;19.80;99.90
11242;DHT22;5678;52.370;9.006;2022-07-06T07:54:46;19.70;99.90
11242;DHT22;5678;52.370;9.006;2022-07-06T07:57:34;19.60;99.90
11242;DHT22;5678;52.370;9.006;2022-07-06T08:00:03;19.60;99.90
11242;DHT22;5678;52.370;9.006;2022-07-06T08:02:32;19.90;99.90
11242;DHT22;5678;52.370;9.006;2022-07-06T08:05:03;20.40;99.90
11242;DHT22;5678;52.370;9.006;2022-07-06T08:07:32;20.70;99.90
11242;DHT22;5678;52.370;9.006;2022-07-06T08:10:00;21.00;99.90
11242;DHT22;5678;52.370;9.006;2022-07-06T08:12:28;21.10;99.90
11242;DHT22;5678;52.370;9.006;2022-07-06T08:14:57;21.30;99.90
11242;DHT22;5678;52.370;9.006;2022-07-06T08:17:25;21.50;99.90
11242;DHT22;5678;52.370;9.006;2022-07-06T08:19:53;21.70;99.90
11242;DHT22;5678;52.370;9.006;2022-07-06T08:22:21;21.80;99.90
11242;DHT22;5678;52.370;9.006;2022-07-06T08:24:50;21.80;99.90
11242;DHT22;5678;52.370;9.006;2022-07-06T08:27:18;21.90;99.90
11242;DHT22;5678;52.370;9.006;2022-07-06T08:29:46;21.90;99.90
11242;DHT22;5678;52.370;9.006;2022-07-06T08:32:15;22.10;99.90
11242;DHT22;5678;52.370;9.006;2022-07-06T08:35:00;22.20;99.90
11242;DHT22;5678;52.370;9.006;2022-07-06T08:37:28;22.50;99.90
11242;DHT22;5678;52.370;9.006;2022-07-06T08:39:58;22.60;99.90
11242;DHT22;5678;52.370;9.006;2022-07-06T08:42:29;22.50;99.90
11242;DHT22;5678;52.370;9.006;2022-07-06T08:45:00;22.30;99.90
11242;DHT22;5678;52.370;9.006;2022-07-06T08:47:28;22.10;99.90
11242;DHT22;5678;52.370;9.006;2022-07-06T08:49:57;22.00;99.90
11242;DHT22;5678;52.370;9.006;2022-07-06T08:52:25;22.20;99.90
11242;DHT22;5678;52.370;9.006;2022-07-06T08:54:54;22.50;99.90
11242;DHT22;5678;52.370;9.006;2022-07-06T08:57:24;22.30;99.90
11242;DHT22;5678;52.370;9.006;2022-07-06T08:59:52;22.10;99.90
11242;DHT22;5678;52.370;9.006;2022-07-06T09:02:24;21.70;99.90
11242;DHT22;5678;52.370;9.006;2022-07-06T09:04:54;21.50;99.90
11242;DHT22;5678;52.370;9.006;2022-07-06T09:07:25;21.90;99.90
11242;DHT22;5678;52.370;9.006;2022-07-06T09:10:17;22.70;99.90
11242;DHT22;5678;52.370;9.006;2022-07-06T09:12:46;23.30;99.90
11242;DHT22;5678;52.370;9.006;2022-07-06T09:15:15;23.30;82.50
11242;DHT22;5678;52.370;9.006;2022-07-06T09:17:43;23.20;88.30
11242;DHT22;5678;52.370;9.006;2022-07-06T09:20:13;22.90;1.00
11242;DHT22;5678;52.370;9.006;2022-07-06T09:22:41;22.40;99.90
11242;DHT22;5678;52.370;9.006;2022-07-06T09:25:11;22.00;91.80
11242;DHT22;5678;52.370;9.006;2022-07-06T09:27:41;21.70;91.00
11242;DHT22;5678;52.370;9.006;2022-07-06T09:30:13;21.30;99.90
11242;DHT22;5678;52.370;9.006;2022-07-06T09:32:42;21.20;99.90
11242;DHT22;5678;52.370;9.006;2022-07-06T09:35:20;21.10;99.90
11242;DHT22;5678;52.370;9.006;2022-07-06T09:38:00;21.10;99.90
11242;DHT22;5678;52.370;9.006;2022-07-06T09:40:29;20.90;99.90
11242;DHT22;5678;52.370;9.006;2022-07-06T09:43:11;20.80;99.90
11242;DHT22;5678;52.370;9.006;2022-07-06T09:45:42;20.90;99.90
11242;DHT22;5678;52.370;9.006;2022-07-06T09:48:12;21.00;1.00
11242;DHT22;5678;52.370;9.006;2022-07-06T09:50:41;21.30;99.90
11242;DHT22;5678;52.370;9.006;2022-07-06T09:53:11;21.50;99.90
11242;DHT22;5678;52.370;9.006;2022-07-06T09:55:43;21.30;99.90
11242;DHT22;5678;52.370;9.006;2022-07-06T09:58:11;21.80;99.90
11242;DHT22;5678;52.370;9.006;2022-07-06T10:00:40;22.10;99.90
11242;DHT22;5678;52.370;9.006;2022-07-06T10:03:09;22.10;99.90
11242;DHT22;5678;52.370;9.006;2022-07-06T10:05:39;22.50;99.90
11242;DHT22;5678;52.370;9.006;2022-07-06T10:08:08;22.80;34.60
11242;DHT22;5678;52.370;9.006;2022-07-06T10:10:38;22.80;28.80
11242;DHT22;5678;52.370;9.006;2022-07-06T10:13:07;22.80;24.80
11242;DHT22;5678;52.370;9.006;2022-07-06T10:15:37;22.80;31.10
11242;DHT22;5678;52.370;9.006;2022-07-06T10:18:07;22.80;31.80
11242;DHT22;5678;52.370;9.006;2022-07-06T10:20:37;23.00;33.30
11242;DHT22;5678;52.370;9.006;2022-07-06T10:23:08;22.80;26.20
11242;DHT22;5678;52.370;9.006;2022-07-06T10:25:36;22.70;37.40
11242;DHT22;5678;52.370;9.006;2022-07-06T10:28:05;22.70;43.10
11242;DHT22;5678;52.370;9.006;2022-07-06T10:30:41;22.60;34.30
11242;DHT22;5678;52.370;9.006;2022-07-06T10:33:12;22.50;32.00
11242;DHT22;5678;52.370;9.006;2022-07-06T10:35:42;22.50;35.90
11242;DHT22;5678;52.370;9.006;2022-07-06T10:38:11;22.50;41.70
11242;DHT22;5678;52.370;9.006;2022-07-06T10:40:40;22.60;44.00
11242;DHT22;5678;52.370;9.006;2022-07-06T10:43:31;22.70;45.90
11242;DHT22;5678;52.370;9.006;2022-07-06T10:46:06;22.70;42.40
11242;DHT22;5678;52.370;9.006;2022-07-06T10:48:39;22.80;37.90
11242;DHT22;5678;52.370;9.006;2022-07-06T10:51:08;22.90;39.60
11242;DHT22;5678;52.370;9.006;2022-07-06T10:53:40;23.10;38.80
11242;DHT22;5678;52.370;9.006;2022-07-06T10:56:09;23.10;31.40
11242;DHT22;5678;52.370;9.006;2022-07-06T10:58:49;23.00;28.00
11242;DHT22;5678;52.370;9.006;2022-07-06T11:01:19;23.00;29.60
11242;DHT22;5678;52.370;9.006;2022-07-06T11:03:49;23.20;31.60
11242;DHT22;5678;52.370;9.006;2022-07-06T11:06:19;23.30;25.70
11242;DHT22;5678;52.370;9.006;2022-07-06T11:08:52;23.40;24.40
11242;DHT22;5678;52.370;9.006;2022-07-06T11:11:22;23.30;18.70
11242;DHT22;5678;52.370;9.006;2022-07-06T11:13:56;23.30;20.20
11242;DHT22;5678;52.370;9.006;2022-07-06T11:16:25;23.40;24.50
11242;DHT22;5678;52.370;9.006;2022-07-06T11:19:04;23.60;29.80
11242;DHT22;5678;52.370;9.006;2022-07-06T11:21:35;23.60;21.60
11242;DHT22;5678;52.370;9.006;2022-07-06T11:24:04;23.60;20.70
11242;DHT22;5678;52.370;9.006;2022-07-06T11:26:33;23.60;25.30
11242;DHT22;5678;52.370;9.006;2022-07-06T11:29:07;23.50;22.00
11242;DHT22;5678;52.370;9.006;2022-07-06T11:31:37;23.40;21.30
11242;DHT22;5678;52.370;9.006;2022-07-06T11:34:08;23.40;18.60
11242;DHT22;5678;52.370;9.006;2022-07-06T11:36:37;23.20;19.10
11242;DHT22;5678;52.370;9.006;2022-07-06T11:39:11;23.10;18.90
11242;DHT22;5678;52.370;9.006;2022-07-06T11:41:40;23.00;19.60
11242;DHT22;5678;52.370;9.006;2022-07-06T11:44:16;23.20;27.20
11242;DHT22;5678;52.370;9.006;2022-07-06T11:46:44;23.50;30.10
11242;DHT22;5678;52.370;9.006;2022-07-06T11:49:14;23.70;26.60
11242;DHT22;5678;52.370;9.006;2022-07-06T11:51:44;24.10;27.90
11242;DHT22;5678;52.370;9.006;2022-07-06T11:54:13;24.20;21.70
11242;DHT22;5678;52.370;9.006;2022-07-06T11:56:46;24.30;21.80
11242;DHT22;5678;52.370;9.006;2022-07-06T11:59:15;24.50;18.60
11242;DHT22;5678;52.370;9.006;2022-07-06T12:01:43;24.80;13.00
11242;DHT22;5678;52.370;9.006;2022-07-06T12:04:13;24.90;10.60
11242;DHT22;5678;52.370;9.006;2022-07-06T12:06:43;24.80;5.50
11242;DHT22;5678;52.370;9.006;2022-07-06T12:09:11;24.50;4.60
11242;DHT22;5678;52.370;9.006;2022-07-06T12:11:51;24.30;5.60
11242;DHT22;5678;52.370;9.006;2022-07-06T12:14:20;24.30;3.80
11242;DHT22;5678;52.370;9.006;2022-07-06T12:16:49;24.30;8.50
11242;DHT22;5678;52.370;9.006;2022-07-06T12:19:21;24.30;9.20
11242;DHT22;5678;52.370;9.006;2022-07-06T12:21:51;24.30;8.80
11242;DHT22;5678;52.370;9.006;2022-07-06T12:24:21;24.30;6.10
11242;DHT22;5678;52.370;9.006;2022-07-06T12:26:50;24.10;7.40
11242;DHT22;5678;52.370;9.006;2022-07-06T12:29:18;24.00;3.50
11242;DHT22;5678;52.370;9.006;2022-07-06T12:31:50;23.90;2.40
11242;DHT22;5678;52.370;9.006;2022-07-06T12:34:21;23.90;4.20
11242;DHT22;5678;52.370;9.006;2022-07-06T12:36:50;24.10;6.10
11242;DHT22;5678;52.370;9.006;2022-07-06T12:39:20;24.40;3.90
11242;DHT22;5678;52.370;9.006;2022-07-06T12:41:49;24.70;6.30
11242;DHT22;5678;52.370;9.006;2022-07-06T12:44:20;25.00;3.80
11242;DHT22;5678;52.370;9.006;2022-07-06T12:46:51;25.10;3.20
11242;DHT22;5678;52.370;9.006;2022-07-06T12:49:21;25.50;5.00
11242;DHT22;5678;52.370;9.006;2022-07-06T12:51:59;25.60;1.00
11242;DHT22;5678;52.370;9.006;2022-07-06T12:54:29;25.70;1.00
11242;DHT22;5678;52.370;9.006;2022-07-06T12:57:00;25.50;1.00
11242;DHT22;5678;52.370;9.006;2022-07-06T12:59:29;25.40;1.00
11242;DHT22;5678;52.370;9.006;2022-07-06T13:01:57;25.30;1.00
11242;DHT22;5678;52.370;9.006;2022-07-06T13:04:28;25.50;2.70
11242;DHT22;5678;52.370;9.006;2022-07-06T13:06:56;25.50;1.00
11242;DHT22;5678;52.370;9.006;2022-07-06T13:09:32;25.70;1.00
11242;DHT22;5678;52.370;9.006;2022-07-06T13:12:00;25.80;1.00
11242;DHT22;5678;52.370;9.006;2022-07-06T13:14:28;25.90;1.00
11242;DHT22;5678;52.370;9.006;2022-07-06T13:16:56;26.00;1.00
11242;DHT22;5678;52.370;9.006;2022-07-06T13:19:24;26.10;1.00
11242;DHT22;5678;52.370;9.006;2022-07-06T13:21:53;26.20;1.00
11242;DHT22;5678;52.370;9.006;2022-07-06T13:24:21;26.30;1.00
11242;DHT22;5678;52.370;9.006;2022-07-06T13:26:49;26.40;1.00
11242;DHT22;5678;52.370;9.006;2022-07-06T13:29:17;26.10;1.00
11242;DHT22;5678;52.370;9.006;2022-07-06T13:31:45;26.00;5.80
11242;DHT22;5678;52.370;9.006;2022-07-06T13:34:13;26.10;1.00
11242;DHT22;5678;52.370;9.006;2022-07-06T13:36:41;26.20;1.00
11242;DHT22;5678;52.370;9.006;2022-07-06T13:39:11;26.30;1.00
11242;DHT22;5678;52.370;9.006;2022-07-06T13:41:39;26.00;1.00
11242;DHT22;5678;52.370;9.006;2022-07-06T13:44:07;25.60;1.00
11242;DHT22;5678;52.370;9.006;2022-07-06T13:46:41;25.10;1.00
11242;DHT22;5678;52.370;9.006;2022-07-06T13:49:10;25.00;1.00
11242;DHT22;5678;52.370;9.006;2022-07-06T13:51:39;24.80;1.00
11242;DHT22;5678;52.370;9.006;2022-07-06T13:54:07;24.90;1.00
11242;DHT22;5678;52.370;9.006;2022-07-06T13:56:37;25.00;1.00
11242;DHT22;5678;52.370;9.006;2022-07-06T13:59:05;24.90;1.00
11242;DHT22;5678;52.370;9.006;2022-07-06T14:01:34;25.00;1.00
11242;DHT22;5678;52.370;9.006;2022-07-06T14:04:02;24.80;1.00
11242;DHT22;5678;52.370;9.006;2022-07-06T14:06:30;24.70;1.00
11242;DHT22;5678;52.370;9.006;2022-07-06T14:08:58;24.90;1.00
11242;DHT22;5678;52.370;9.006;2022-07-06T14:11:26;25.00;1.00
11242;DHT22;5678;52.370;9.006;2022-07-06T14:13:55;24.90;1.00
11242;DHT22;5678;52.370;9.006;2022-07-06T14:16:23;24.70;1.00
11242;DHT22;5678;52.370;9.006;2022-07-06T14:18:51;24.50;1.00
11242;DHT22;5678;52.370;9.006;2022-07-06T14:21:19;24.40;1.00
11242;DHT22;5678;52.370;9.006;2022-07-06T14:23:47;24.30;1.00
11242;DHT22;5678;52.370;9.006;2022-07-06T14:26:16;24.30;1.00
11242;DHT22;5678;52.370;9.006;2022-07-06T14:28:44;24.50;1.00
11242;DHT22;5678;52.370;9.006;2022-07-06T14:31:13;24.60;1.00
11242;DHT22;5678;52.370;9.006;2022-07-06T14:33:48;24.60;1.00
11242;DHT22;5678;52.370;9.006;2022-07-06T14:36:16;24.60;1.00
11242;DHT22;5678;52.370;9.006;2022-07-06T14:38:44;24.60;1.00
11242;DHT22;5678;52.370;9.006;2022-07-06T14:41:12;24.70;1.00
11242;DHT22;5678;52.370;9.006;2022-07-06T14:43:40;24.70;1.00
11242;DHT22;5678;52.370;9.006;2022-07-06T14:46:08;24.50;1.00
11242;DHT22;5678;52.370;9.006;2022-07-06T14:48:37;24.40;1.00
11242;DHT22;5678;52.370;9.006;2022-07-06T14:51:05;24.40;1.00
11242;DHT22;5678;52.370;9.006;2022-07-06T14:53:33;24.40;1.00
11242;DHT22;5678;52.370;9.006;2022-07-06T14:56:01;24.40;1.00
11242;DHT22;5678;52.370;9.006;2022-07-06T14:58:29;24.50;1.00
11242;DHT22;5678;52.370;9.006;2022-07-06T15:00:57;24.40;1.00
11242;DHT22;5678;52.370;9.006;2022-07-06T15:03:25;24.60;1.00
11242;DHT22;5678;52.370;9.006;2022-07-06T15:05:56;24.50;1.00
11242;DHT22;5678;52.370;9.006;2022-07-06T15:08:24;24.10;1.00
11242;DHT22;5678;52.370;9.006;2022-07-06T15:10:52;24.00;1.00
11242;DHT22;5678;52.370;9.006;2022-07-06T15:13:20;24.00;1.00
11242;DHT22;5678;52.370;9.006;2022-07-06T15:15:48;24.00;1.00
11242;DHT22;5678;52.370;9.006;2022-07-06T15:18:25;24.20;1.00
11242;DHT22;5678;52.370;9.006;2022-07-06T15:20:53;24.40;1.00
11242;DHT22;5678;52.370;9.006;2022-07-06T15:23:23;24.70;1.00
11242;DHT22;5678;52.370;9.006;2022-07-06T15:25:53;24.80;1.00
11242;DHT22;5678;52.370;9.006;2022-07-06T15:28:22;24.90;1.00
11242;DHT22;5678;52.370;9.006;2022-07-06T15:30:53;24.90;1.00
11242;DHT22;5678;52.370;9.006;2022-07-06T15:33:22;24.70;1.00
11242;DHT22;5678;52.370;9.006;2022-07-06T15:35:51;24.40;1.00
11242;DHT22;5678;52.370;9.006;2022-07-06T15:38:19;22.90;1.00
11242;DHT22;5678;52.370;9.006;2022-07-06T15:40:48;23.90;1.00
11242;DHT22;5678;52.370;9.006;2022-07-06T15:43:22;23.70;1.00
11242;DHT22;5678;52.370;9.006;2022-07-06T15:45:55;23.50;1.00
11242;DHT22;5678;52.370;9.006;2022-07-06T15:48:24;23.30;1.00
11242;DHT22;5678;52.370;9.006;2022-07-06T15:50:52;23.10;1.00
11242;DHT22;5678;52.370;9.006;2022-07-06T15:53:21;23.10;1.00
11242;DHT22;5678;52.370;9.006;2022-07-06T15:55:51;23.20;1.00
11242;DHT22;5678;52.370;9.006;2022-07-06T15:58:20;23.20;1.00
11242;DHT22;5678;52.370;9.006;2022-07-06T16:00:48;23.20;1.00
11242;DHT22;5678;52.370;9.006;2022-07-06T16:03:16;23.10;1.00